Time;durP1;ratioP1;P1;durP2;ratioP2;P2;SDS_P1;SDS_P2;PMS_P1;PMS_P2;Temp;Humidity;BMP_temperature;BMP_pressure;BME280_temperature;BME280_humidity;BME280_pressure;Samples;Min_cycle;Max_cycle;Signal;HPM_P1;HPM_P2
2021/12/21 00:00:51;;;;;;;33.35;9.40;;;;;;;-1.41;88.73;102921.84;5025679;28;20515;-61
2021/12/21 00:03:17;;;;;;;33.38;10.20;;;;;;;-1.37;89.12;102928.06;5027381;28;20030;-62
2021/12/21 00:05:43;;;;;;;40.70;10.95;;;;;;;-1.38;89.07;102928.88;5026755;28;20017;-60
2021/12/21 00:08:10;;;;;;;30.38;8.05;;;;;;;-1.43;89.05;102925.16;5027175;28;20037;-59
2021/12/21 00:10:37;;;;;;;26.35;8.20;;;;;;;-1.49;88.63;102930.03;5009185;28;20093;-60
2021/12/21 00:13:38;;;;;;;35.08;10.02;;;;;;;-1.54;88.61;102932.38;5025846;28;20037;-59
2021/12/21 00:16:02;;;;;;;27.55;8.52;;;;;;;-1.58;88.67;102931.34;5026570;28;20090;-61
2021/12/21 00:18:36;;;;;;;39.97;7.63;;;;;;;-1.60;88.70;102934.69;5025713;28;20029;-61
2021/12/21 00:21:12;;;;;;;31.17;7.97;;;;;;;-1.63;88.64;102932.81;5026849;28;20029;-61
2021/12/21 00:23:42;;;;;;;29.17;8.55;;;;;;;-1.62;88.45;102944.94;5026240;28;20379;-62
2021/12/21 00:26:16;;;;;;;34.60;8.70;;;;;;;-1.60;88.39;102934.69;5026889;28;20373;-62
2021/12/21 00:31:11;;;;;;;20.58;6.88;;;;;;;-1.67;88.43;102929.19;5027494;28;20528;-61
2021/12/21 00:33:39;;;;;;;30.25;9.25;;;;;;;-1.69;88.47;102932.47;5006945;28;20117;-62
2021/12/21 00:36:05;;;;;;;26.27;8.27;;;;;;;-1.72;88.54;102927.19;5006113;28;20073;-61
2021/12/21 00:38:31;;;;;;;26.48;8.00;;;;;;;-1.74;88.44;102913.28;5005950;28;20819;-61
2021/12/21 00:40:56;;;;;;;27.67;8.15;;;;;;;-1.75;88.40;102917.56;5006134;28;20121;-60
2021/12/21 00:43:21;;;;;;;23.27;7.35;;;;;;;-1.80;88.56;102909.56;5007180;28;20105;-61
2021/12/21 00:45:47;;;;;;;35.60;10.40;;;;;;;-1.78;88.57;102917.41;5005959;28;20120;-61
2021/12/21 00:48:14;;;;;;;25.92;9.18;;;;;;;-1.82;88.63;102908.63;4989990;28;20029;-62
2021/12/21 00:50:39;;;;;;;14.07;5.68;;;;;;;-1.86;88.69;102908.38;5007203;28;20069;-61
2021/12/21 00:53:05;;;;;;;24.52;8.63;;;;;;;-1.89;88.53;102914.28;5007146;28;20034;-59
2021/12/21 00:55:30;;;;;;;31.45;9.20;;;;;;;-1.90;88.47;102912.47;5006584;28;20034;-62
2021/12/21 00:57:56;;;;;;;32.10;9.20;;;;;;;-1.83;88.68;102900.78;4989096;28;20034;-62
2021/12/21 01:00:22;;;;;;;28.58;7.43;;;;;;;-1.88;88.61;102907.41;5015104;28;20278;-61
2021/12/21 01:02:47;;;;;;;21.17;7.82;;;;;;;-1.93;88.53;102909.75;5029078;28;20034;-62
2021/12/21 01:08:05;;;;;;;26.10;7.90;;;;;;;-1.89;88.58;102908.22;4998822;28;20040;-61
2021/12/21 01:13:48;;;;;;;24.15;7.82;;;;;;;-1.98;88.45;102903.47;4958957;28;20198;-61
2021/12/21 01:18:59;;;;;;;22.33;7.25;;;;;;;-2.04;88.43;102894.56;5009779;28;20065;-61
2021/12/21 01:21:28;;;;;;;20.00;8.52;;;;;;;-2.01;88.63;102896.44;5010677;28;20034;-61
2021/12/21 01:24:07;;;;;;;30.40;9.88;;;;;;;-2.00;88.65;102899.91;5009941;28;20506;-61
2021/12/21 01:26:53;;;;;;;34.87;10.03;;;;;;;-1.97;88.97;102895.78;5010443;28;20040;-61
2021/12/21 01:34:34;;;;;;;35.90;10.30;;;;;;;-2.07;88.82;102889.28;5029908;28;20036;-61
2021/12/21 01:50:11;;;;;;;30.42;9.48;;;;;;;-2.06;89.02;102884.97;5029924;28;20035;-61
2021/12/21 01:52:36;;;;;;;27.83;9.00;;;;;;;-2.10;88.80;102883.03;5029704;28;20372;-61
2021/12/21 01:55:02;;;;;;;22.60;9.00;;;;;;;-2.07;88.68;102883.22;5010895;28;20075;-63
2021/12/21 01:57:28;;;;;;;34.15;10.88;;;;;;;-2.07;88.89;102878.94;5029318;28;20124;-61
2021/12/21 01:59:53;;;;;;;28.75;9.98;;;;;;;-2.08;88.87;102877.16;5028105;28;20129;-61
2021/12/21 02:02:19;;;;;;;35.38;9.82;;;;;;;-2.12;88.83;102877.78;5029398;28;20097;-61
2021/12/21 02:04:45;;;;;;;30.55;9.02;;;;;;;-2.23;88.84;102877.22;5099127;22;20412;-62
2021/12/21 02:07:12;;;;;;;32.08;7.95;;;;;;;-2.29;88.46;102874.31;5009171;28;20084;-62
2021/12/21 02:09:37;;;;;;;30.48;9.80;;;;;;;-2.34;88.58;102874.09;5008907;28;20033;-61
2021/12/21 02:12:12;;;;;;;29.77;7.75;;;;;;;-2.38;88.55;102869.56;5008462;28;20160;-61
2021/12/21 02:14:38;;;;;;;27.95;7.07;;;;;;;-2.41;88.84;102861.66;4990362;28;20040;-61
2021/12/21 02:19:40;;;;;;;36.22;8.23;;;;;;;-2.46;88.92;102873.44;5028800;28;20034;-60
2021/12/21 02:22:16;;;;;;;28.42;8.38;;;;;;;-2.48;89.13;102875.03;5028584;28;20491;-62
2021/12/21 02:24:52;;;;;;;20.98;6.75;;;;;;;-2.52;89.04;102870.53;5027621;28;20476;-61
2021/12/21 02:27:26;;;;;;;27.15;8.02;;;;;;;-2.56;88.96;102862.63;4990192;28;20088;-60
2021/12/21 02:29:51;;;;;;;28.05;8.88;;;;;;;-2.57;88.84;102865.13;4988841;28;20030;-61
2021/12/21 02:32:17;;;;;;;18.60;6.65;;;;;;;-2.63;88.69;102855.38;4990398;28;20543;-60
2021/12/21 02:34:44;;;;;;;26.08;7.18;;;;;;;-2.64;88.58;102860.44;4990688;28;20029;-62
2021/12/21 02:37:11;;;;;;;29.77;9.05;;;;;;;-2.61;89.05;102868.34;5007951;28;20361;-62
2021/12/21 02:39:37;;;;;;;31.45;9.52;;;;;;;-2.56;88.95;102861.75;5006725;28;20032;-62
2021/12/21 02:42:02;;;;;;;21.90;7.43;;;;;;;-2.59;88.94;102870.19;5007411;28;20030;-61
2021/12/21 02:44:28;;;;;;;25.83;7.80;;;;;;;-2.65;88.85;102862.13;5017673;28;20037;-62
2021/12/21 02:46:53;;;;;;;33.05;8.82;;;;;;;-2.64;89.06;102866.50;5027514;28;20030;-62
2021/12/21 02:49:19;;;;;;;23.67;8.30;;;;;;;-2.64;89.07;102874.25;5027489;28;20029;-61
2021/12/21 02:51:45;;;;;;;17.92;6.53;;;;;;;-2.69;88.90;102868.84;5029012;28;20527;-55
2021/12/21 02:54:12;;;;;;;22.63;8.02;;;;;;;-2.71;88.77;102864.41;5020205;28;20112;-60
2021/12/21 02:56:38;;;;;;;24.67;7.60;;;;;;;-2.74;88.76;102872.84;5008049;28;20033;-62
2021/12/21 02:59:04;;;;;;;25.88;7.00;;;;;;;-2.76;88.73;102869.31;5007388;28;20030;-59
2021/12/21 03:01:30;;;;;;;22.38;8.05;;;;;;;-2.77;88.83;102862.34;4995267;28;20037;-62
2021/12/21 03:03:56;;;;;;;21.27;7.95;;;;;;;-2.77;88.99;102867.50;5026759;28;20056;-61
2021/12/21 03:07:02;;;;;;;27.40;8.43;;;;;;;-2.76;88.84;102864.16;5027283;28;20033;-63
2021/12/21 03:09:31;;;;;;;23.15;6.70;;;;;;;-2.77;88.55;102872.66;5025107;28;20068;-63
2021/12/21 03:12:15;;;;;;;30.23;8.10;;;;;;;-2.81;88.77;102869.06;5027849;28;20033;-62
2021/12/21 03:14:41;;;;;;;36.97;9.88;;;;;;;-2.77;88.73;102866.66;5016679;28;20041;-62
2021/12/21 03:17:07;;;;;;;22.88;7.07;;;;;;;-2.81;88.92;102866.47;5007269;28;20465;-61
2021/12/21 03:19:33;;;;;;;26.73;8.50;;;;;;;-2.81;88.74;102866.47;5007475;28;20429;-61
2021/12/21 03:21:59;;;;;;;32.13;9.75;;;;;;;-2.80;89.22;102859.63;5008052;28;20046;-62
2021/12/21 03:24:25;;;;;;;31.75;7.32;;;;;;;-2.82;89.37;102864.72;5006964;28;20109;-62
2021/12/21 03:26:50;;;;;;;20.33;7.30;;;;;;;-2.83;89.48;102857.75;5007946;28;20030;-60
2021/12/21 03:29:16;;;;;;;22.38;7.10;;;;;;;-2.83;89.30;102862.91;5008631;28;20105;-62
2021/12/21 03:31:41;;;;;;;23.67;6.63;;;;;;;-2.84;89.03;102862.81;5008866;28;20090;-62
2021/12/21 03:34:07;;;;;;;27.65;7.10;;;;;;;-2.88;89.00;102858.31;5003084;28;20394;-61
2021/12/21 03:36:33;;;;;;;22.45;6.63;;;;;;;-2.90;88.87;102857.31;5027181;28;20493;-60
2021/12/21 03:39:04;;;;;;;25.33;8.10;;;;;;;-2.89;89.14;102854.81;5026156;28;20669;-62
2021/12/21 03:41:30;;;;;;;30.13;9.82;;;;;;;-2.92;89.15;102858.13;5014837;28;20025;-62
2021/12/21 03:43:59;;;;;;;24.40;7.15;;;;;;;-2.93;88.87;102855.47;5006974;28;20387;-61
2021/12/21 03:46:25;;;;;;;31.67;7.65;;;;;;;-2.96;88.82;102855.31;5007133;28;20464;-62
2021/12/21 03:48:50;;;;;;;21.00;5.93;;;;;;;-2.97;88.94;102850.97;5007941;28;20104;-61
2021/12/21 03:51:17;;;;;;;15.13;6.18;;;;;;;-3.00;88.85;102843.03;5008144;28;20030;-62
2021/12/21 03:53:43;;;;;;;14.93;6.35;;;;;;;-3.01;88.92;102849.03;4990044;28;20025;-61
2021/12/21 03:56:32;;;;;;;25.17;8.50;;;;;;;-3.02;88.93;102847.22;5007802;28;20042;-63
2021/12/21 03:58:57;;;;;;;23.05;7.05;;;;;;;-3.03;89.11;102850.63;5007399;28;20057;-62
2021/12/21 04:01:22;;;;;;;29.83;8.40;;;;;;;-3.06;89.30;102847.09;5006064;28;20123;-62
2021/12/21 04:03:48;;;;;;;25.73;7.00;;;;;;;-3.07;89.07;102844.41;4988987;28;20472;-63
2021/12/21 04:06:14;;;;;;;31.42;8.32;;;;;;;-3.08;88.95;102842.63;5007411;28;20038;-62
2021/12/21 04:08:39;;;;;;;26.35;7.80;;;;;;;-3.10;89.08;102839.94;5007314;28;20033;-60
2021/12/21 04:11:04;;;;;;;26.15;7.65;;;;;;;-3.10;89.03;102837.38;5007750;28;20681;-63
2021/12/21 04:13:30;;;;;;;26.48;7.90;;;;;;;-3.09;89.07;102839.16;5007432;28;20528;-57
2021/12/21 04:15:59;;;;;;;20.10;6.75;;;;;;;-3.08;88.94;102827.16;5006354;28;20125;-60
2021/12/21 04:18:25;;;;;;;21.63;8.15;;;;;;;-3.10;88.95;102824.47;5006767;28;20041;-61
2021/12/21 04:20:51;;;;;;;24.90;7.35;;;;;;;-3.09;88.94;102835.69;5007356;28;20604;-61
2021/12/21 04:23:17;;;;;;;29.25;9.70;;;;;;;-3.07;88.92;102829.81;5006724;28;20048;-60
2021/12/21 04:25:42;;;;;;;30.50;12.20;;;;;;;-2.95;89.21;102829.59;5007954;28;20441;-61
2021/12/21 04:28:08;;;;;;;38.75;12.55;;;;;;;-2.86;89.43;102820.59;5007451;28;20028;-61
2021/12/21 04:30:33;;;;;;;33.13;11.55;;;;;;;-2.81;89.54;102813.97;5007563;28;20356;-62
2021/12/21 04:32:59;;;;;;;36.33;12.57;;;;;;;-2.76;89.59;102819.38;5006012;28;20480;-62
2021/12/21 04:35:24;;;;;;;38.50;12.90;;;;;;;-2.74;89.61;102817.78;5006582;28;20022;-62
2021/12/21 04:38:01;;;;;;;29.85;11.93;;;;;;;-2.74;89.42;102826.38;4991938;28;20026;-62
2021/12/21 04:40:40;;;;;;;37.38;12.35;;;;;;;-2.72;89.39;102819.63;5011666;28;20034;-64
2021/12/21 04:43:05;;;;;;;39.60;12.60;;;;;;;-2.73;89.30;102825.59;5030775;28;20025;-61
2021/12/21 04:45:31;;;;;;;33.67;10.15;;;;;;;-2.79;89.17;102823.56;5030497;28;20033;-63
2021/12/21 04:47:56;;;;;;;32.90;10.95;;;;;;;-2.79;88.96;102823.56;5030659;28;20068;-62
2021/12/21 04:50:22;;;;;;;33.15;11.90;;;;;;;-2.75;89.10;102827.19;5030988;28;20021;-63
2021/12/21 04:52:47;;;;;;;32.00;10.90;;;;;;;-2.78;89.03;102824.44;5030230;28;20077;-62
2021/12/21 04:55:13;;;;;;;38.88;11.70;;;;;;;-2.84;89.03;102822.44;5013663;28;20091;-64
2021/12/21 04:57:40;;;;;;;31.33;10.02;;;;;;;-2.92;88.95;102818.56;5031196;28;20135;-62
2021/12/21 05:00:07;;;;;;;34.53;13.13;;;;;;;-2.92;88.85;102827.19;5028877;28;20045;-63
2021/12/21 05:02:33;;;;;;;28.55;13.00;;;;;;;-2.89;88.81;102823.88;5028926;28;20064;-63
2021/12/21 05:04:58;;;;;;;31.13;11.57;;;;;;;-2.96;89.13;102822.66;5029135;28;20084;-62
2021/12/21 05:07:27;;;;;;;30.67;11.45;;;;;;;-2.94;89.08;102822.75;5030585;28;20052;-62
2021/12/21 05:09:57;;;;;;;36.00;11.17;;;;;;;-2.93;89.26;102821.94;5029794;28;20517;-62
2021/12/21 05:12:22;;;;;;;39.55;11.70;;;;;;;-2.91;88.95;102820.34;5031021;28;20542;-63
2021/12/21 05:14:48;;;;;;;26.55;10.90;;;;;;;-2.93;89.07;102819.34;5029289;28;20013;-62
2021/12/21 05:17:13;;;;;;;41.03;12.10;;;;;;;-2.93;88.96;102814.19;5030645;28;20037;-62
2021/12/21 05:19:39;;;;;;;42.05;11.73;;;;;;;-2.94;89.12;102809.84;5029217;28;20032;-63
2021/12/21 05:22:04;;;;;;;32.05;11.93;;;;;;;-2.96;89.06;102819.19;5030264;28;20033;-63
2021/12/21 05:24:30;;;;;;;29.15;12.60;;;;;;;-2.95;89.14;102810.66;5029521;28;20475;-63
2021/12/21 05:26:55;;;;;;;31.35;12.02;;;;;;;-2.90;89.20;102810.88;5012351;28;20037;-62
2021/12/21 05:29:20;;;;;;;30.23;13.52;;;;;;;-2.88;89.07;102811.88;5030786;28;20040;-63
2021/12/21 05:31:46;;;;;;;40.67;14.50;;;;;;;-2.87;88.99;102811.94;5012336;28;20026;-64
2021/12/21 05:34:11;;;;;;;36.90;13.45;;;;;;;-2.85;89.21;102812.94;5022770;28;20052;-64
2021/12/21 05:36:36;;;;;;;41.72;12.75;;;;;;;-2.83;89.11;102813.88;5029106;28;20030;-61
2021/12/21 05:39:05;;;;;;;31.60;13.20;;;;;;;-2.86;88.96;102810.28;5028141;28;20087;-62
2021/12/21 05:41:47;;;;;;;35.83;13.95;;;;;;;-2.83;88.97;102815.59;5020287;28;20496;-63
2021/12/21 05:44:13;;;;;;;43.78;12.63;;;;;;;-2.81;89.14;102811.38;5019440;28;20120;-62
2021/12/21 05:46:38;;;;;;;47.00;14.90;;;;;;;-2.80;89.06;102826.09;5003899;28;20037;-62
2021/12/21 05:49:04;;;;;;;34.10;13.15;;;;;;;-2.82;88.98;102817.38;4989961;28;20038;-62
2021/12/21 05:51:29;;;;;;;36.42;11.90;;;;;;;-2.90;88.77;102818.63;4990339;28;20033;-63
2021/12/21 05:53:54;;;;;;;28.23;12.00;;;;;;;-3.01;88.74;102818.94;4989905;28;20037;-63
2021/12/21 05:56:20;;;;;;;27.55;10.93;;;;;;;-3.06;88.88;102818.72;4990568;28;20393;-63
2021/12/21 05:58:45;;;;;;;31.65;12.60;;;;;;;-3.03;88.96;102820.56;4989810;28;20506;-61
2021/12/21 06:01:11;;;;;;;35.45;13.55;;;;;;;-3.02;89.02;102813.69;4990431;28;20043;-62
2021/12/21 06:03:36;;;;;;;28.15;10.13;;;;;;;-3.07;88.78;102805.72;4990269;28;20497;-63
2021/12/21 06:06:01;;;;;;;43.25;15.38;;;;;;;-3.06;88.83;102813.53;4989854;28;20070;-62
2021/12/21 06:08:27;;;;;;;40.97;14.95;;;;;;;-3.01;88.85;102815.47;4989817;28;20113;-62
2021/12/21 06:10:55;;;;;;;45.42;14.93;;;;;;;-3.01;89.22;102825.81;4990165;28;20026;-63
2021/12/21 06:26:14;;;;;;;49.38;15.90;;;;;;;-3.00;88.85;102817.25;5007376;28;20030;-63
2021/12/21 06:28:41;;;;;;;50.40;16.20;;;;;;;-3.00;88.98;102812.09;5006670;28;20468;-62
2021/12/21 06:31:06;;;;;;;38.13;13.80;;;;;;;-3.01;89.07;102818.94;5001066;28;20055;-63
2021/12/21 06:33:32;;;;;;;35.85;13.15;;;;;;;-3.05;89.08;102820.47;5000547;28;20069;-63
2021/12/21 06:35:58;;;;;;;33.08;13.35;;;;;;;-3.15;88.73;102820.78;5029226;28;20026;-63
2021/12/21 06:38:23;;;;;;;49.47;13.77;;;;;;;-3.18;88.87;102815.44;5025264;28;20198;-63
2021/12/21 06:40:49;;;;;;;39.40;10.55;;;;;;;-3.24;88.80;102818.56;5009132;28;20132;-62
2021/12/21 06:43:16;;;;;;;29.42;11.20;;;;;;;-3.32;88.82;102827.56;5009888;28;20026;-64
2021/12/21 06:45:51;;;;;;;46.50;13.05;;;;;;;-3.35;88.88;102829.97;5007410;28;20045;-65
2021/12/21 06:53:33;;;;;;;47.53;14.50;;;;;;;-3.35;89.00;102824.81;5004970;28;20061;-65
2021/12/21 06:55:58;;;;;;;33.10;12.45;;;;;;;-3.38;88.98;102824.63;5007117;28;20062;-64
2021/12/21 06:58:23;;;;;;;33.75;13.75;;;;;;;-3.42;88.85;102828.75;5007537;28;20053;-63
2021/12/21 07:00:50;;;;;;;36.15;15.23;;;;;;;-3.43;88.84;102814.09;5007561;28;20053;-61
2021/12/21 07:03:15;;;;;;;53.38;17.92;;;;;;;-3.36;89.02;102811.06;5008174;28;20025;-62
2021/12/21 07:05:41;;;;;;;42.95;14.68;;;;;;;-3.40;89.24;102813.38;4991122;28;20034;-62
2021/12/21 07:08:14;;;;;;;43.45;15.63;;;;;;;-3.40;89.07;102816.84;5007356;28;20048;-61
2021/12/21 07:10:41;;;;;;;50.75;17.50;;;;;;;-3.38;88.83;102817.78;5008505;28;20377;-63
2021/12/21 07:18:34;;;;;;;35.25;16.20;;;;;;;-3.46;88.79;102826.81;5008415;28;20199;-62
2021/12/21 07:21:01;;;;;;;36.67;13.43;;;;;;;-3.47;88.69;102819.84;5008361;28;20469;-64
2021/12/21 07:23:27;;;;;;;28.60;13.88;;;;;;;-3.43;88.63;102832.13;4989412;28;20108;-63
2021/12/21 07:25:53;;;;;;;31.50;13.02;;;;;;;-3.45;88.79;102834.63;5028053;28;20068;-64
2021/12/21 07:28:18;;;;;;;32.38;12.68;;;;;;;-3.47;88.81;102828.47;5026930;28;20033;-63
2021/12/21 07:30:44;;;;;;;23.77;9.60;;;;;;;-3.52;88.89;102831.59;5027686;28;20033;-64
2021/12/21 07:33:09;;;;;;;24.52;9.63;;;;;;;-3.57;88.67;102833.91;5027993;28;20028;-67
2021/12/21 07:35:34;;;;;;;31.75;12.80;;;;;;;-3.57;88.70;102832.25;5027745;28;20043;-62
2021/12/21 07:38:00;;;;;;;43.45;13.65;;;;;;;-3.48;88.89;102833.53;5026826;28;20476;-63
2021/12/21 07:40:25;;;;;;;36.33;13.35;;;;;;;-3.44;88.92;102830.34;5014808;28;20038;-63
2021/12/21 07:42:51;;;;;;;28.92;10.43;;;;;;;-3.49;89.02;102831.78;4990306;28;20068;-64
2021/12/21 07:45:16;;;;;;;32.88;12.10;;;;;;;-3.52;88.90;102827.34;5007917;28;20037;-64
2021/12/21 07:47:42;;;;;;;28.63;13.20;;;;;;;-3.50;88.94;102824.81;5006615;28;20159;-59
2021/12/21 07:50:08;;;;;;;35.70;14.70;;;;;;;-3.43;89.04;102830.44;5007171;28;20030;-61
2021/12/21 07:52:34;;;;;;;39.35;11.50;;;;;;;-3.44;89.02;102826.06;5006404;28;20040;-63
2021/12/21 07:54:59;;;;;;;26.58;12.07;;;;;;;-3.43;89.30;102826.97;5006575;28;20076;-62
2021/12/21 07:57:24;;;;;;;30.80;12.55;;;;;;;-3.42;89.25;102828.75;5008055;28;20044;-62
2021/12/21 07:59:50;;;;;;;39.38;15.10;;;;;;;-3.39;89.26;102834.06;5007599;28;20395;-62
2021/12/21 08:02:15;;;;;;;36.20;17.95;;;;;;;-3.34;89.40;102832.63;5008002;28;20524;-62
2021/12/21 08:04:42;;;;;;;33.88;16.48;;;;;;;-3.33;89.43;102836.09;5008306;28;20060;-62
2021/12/21 08:07:13;;;;;;;37.75;13.65;;;;;;;-3.38;89.34;102840.09;5007487;28;20030;-63
2021/12/21 08:09:42;;;;;;;33.53;15.07;;;;;;;-3.38;89.40;102850.41;5023813;28;20018;-62
2021/12/21 08:12:16;;;;;;;;;;;;;;;-3.31;89.53;102843.13;5026734;28;20025;-61
2021/12/21 08:14:47;;;;;;;34.35;13.25;;;;;;;-3.26;89.43;102850.22;5027343;28;19913;-61
2021/12/21 08:17:13;;;;;;;40.47;16.52;;;;;;;-3.21;89.46;102849.69;5010029;28;20108;-62
2021/12/21 08:19:39;;;;;;;40.35;15.82;;;;;;;-3.21;89.34;102851.38;5027332;28;20105;-62
2021/12/21 08:22:04;;;;;;;30.20;13.93;;;;;;;-3.25;89.26;102852.88;5015961;28;20484;-63
2021/12/21 08:24:30;;;;;;;25.48;13.15;;;;;;;-3.26;89.38;102861.44;5007056;28;20511;-63
2021/12/21 08:26:58;;;;;;;32.45;10.90;;;;;;;-3.26;89.58;102866.59;4989061;28;20026;-62
2021/12/21 08:29:24;;;;;;;34.00;14.18;;;;;;;-3.25;89.34;102865.78;5006396;28;20520;-61
2021/12/21 08:31:49;;;;;;;25.58;11.30;;;;;;;-3.23;89.67;102876.19;5006510;28;20030;-62
2021/12/21 08:34:15;;;;;;;37.38;14.65;;;;;;;-3.22;89.68;102875.41;5006902;28;20029;-61
2021/12/21 08:36:41;;;;;;;36.35;14.23;;;;;;;-3.21;89.65;102879.75;4990151;28;20030;-62
2021/12/21 08:39:07;;;;;;;29.70;13.23;;;;;;;-3.17;89.86;102882.59;5006473;28;20041;-62
2021/12/21 08:41:38;;;;;;;28.65;12.23;;;;;;;-3.14;90.08;102881.84;5007654;28;20022;-63
2021/12/21 08:44:03;;;;;;;27.33;12.85;;;;;;;-3.11;89.82;102876.88;5006116;28;20038;-61
2021/12/21 08:46:29;;;;;;;29.00;12.77;;;;;;;-3.08;89.87;102876.16;5006958;28;20334;-61
2021/12/21 08:48:54;;;;;;;22.25;12.00;;;;;;;-3.03;90.02;102876.41;5005431;28;20113;-62
2021/12/21 08:51:19;;;;;;;31.20;13.95;;;;;;;-3.01;89.92;102882.56;5006627;28;20076;-62
2021/12/21 08:53:45;;;;;;;45.30;16.65;;;;;;;-2.89;89.88;102877.19;5005626;28;20049;-61
2021/12/21 08:56:11;;;;;;;37.17;14.80;;;;;;;-2.82;89.94;102872.44;5007586;28;20026;-62
2021/12/21 08:58:36;;;;;;;36.13;17.10;;;;;;;-2.72;89.96;102871.25;5006248;28;20169;-62
2021/12/21 09:01:02;;;;;;;33.33;13.43;;;;;;;-2.73;89.93;102858.25;5006071;28;20116;-64
2021/12/21 09:03:28;;;;;;;37.72;14.43;;;;;;;-2.66;89.97;102857.78;5007214;28;20471;-63
2021/12/21 09:05:53;;;;;;;42.55;16.00;;;;;;;-2.62;90.16;102867.44;5006036;28;20038;-64
2021/12/21 09:08:19;;;;;;;32.08;14.05;;;;;;;-2.61;90.04;102864.09;5006518;28;20026;-63
2021/12/21 09:10:44;;;;;;;49.03;18.13;;;;;;;-2.48;90.14;102859.56;5007429;28;20148;-63
2021/12/21 09:13:10;;;;;;;34.75;16.50;;;;;;;-2.41;89.95;102862.56;4990280;28;20112;-61
2021/12/21 09:15:36;;;;;;;40.67;14.95;;;;;;;-2.36;89.96;102862.78;5007466;28;20507;-63
2021/12/21 09:18:02;;;;;;;54.42;18.17;;;;;;;-2.26;89.83;102866.72;5006855;28;20030;-60
2021/12/21 09:20:29;;;;;;;41.83;17.25;;;;;;;-2.19;89.89;102868.84;5005160;28;20022;-62
2021/12/21 09:22:55;;;;;;;44.53;15.55;;;;;;;-2.11;89.70;102858.91;5007531;28;20026;-61
2021/12/21 09:25:21;;;;;;;39.72;16.20;;;;;;;-2.05;89.73;102866.97;5007747;28;20026;-61
2021/12/21 09:27:47;;;;;;;37.22;15.38;;;;;;;-1.98;89.72;102856.94;5009359;28;20068;-60
2021/12/21 09:30:15;;;;;;;39.45;15.02;;;;;;;-1.97;89.68;102858.72;5010200;28;20527;-61
2021/12/21 09:32:41;;;;;;;34.20;13.77;;;;;;;-1.97;89.83;102863.88;4973985;28;20031;-64
2021/12/21 09:35:07;;;;;;;41.58;16.63;;;;;;;-1.91;89.80;102856.44;4990842;28;20011;-62
2021/12/21 09:37:33;;;;;;;32.95;12.88;;;;;;;-1.87;89.78;102855.78;4990981;28;20030;-62
2021/12/21 09:39:59;;;;;;;39.55;15.55;;;;;;;-1.83;89.87;102851.69;5008734;28;20026;-62
2021/12/21 09:42:30;;;;;;;43.50;15.93;;;;;;;-1.79;89.71;102857.09;5008841;28;20084;-62
2021/12/21 09:44:56;;;;;;;37.28;14.77;;;;;;;-1.73;89.66;102855.59;5007674;28;20052;-61
2021/12/21 09:47:22;;;;;;;36.58;16.17;;;;;;;-1.71;89.73;102844.53;5008604;28;20018;-60
2021/12/21 09:49:49;;;;;;;44.20;16.67;;;;;;;-1.64;89.73;102850.88;5009991;28;20092;-63
2021/12/21 09:52:21;;;;;;;44.55;17.77;;;;;;;-1.50;89.81;102848.09;5008575;28;20034;-64
2021/12/21 09:54:47;;;;;;;36.88;17.40;;;;;;;-1.48;89.62;102849.94;5005420;28;20472;-61
2021/12/21 09:57:16;;;;;;;44.50;19.10;;;;;;;-1.38;89.64;102840.94;5009763;28;20036;-61
2021/12/21 09:59:43;;;;;;;49.15;18.95;;;;;;;-1.31;89.50;102843.00;5011040;28;20034;-61
2021/12/21 10:02:08;;;;;;;44.33;17.33;;;;;;;-1.22;89.37;102846.84;5029665;28;20025;-61
2021/12/21 10:04:47;;;;;;;49.65;19.65;;;;;;;-1.11;89.14;102850.84;5019453;28;20424;-62
2021/12/21 10:07:14;;;;;;;40.63;17.53;;;;;;;-1.05;88.87;102858.00;5008425;28;20507;-63
2021/12/21 10:09:43;;;;;;;53.22;18.83;;;;;;;-1.03;88.24;102857.25;5009567;28;20527;-61
2021/12/21 10:12:25;;;;;;;42.20;17.20;;;;;;;-0.97;87.69;102861.81;5008931;28;20030;-63
2021/12/21 10:15:05;;;;;;;43.95;16.65;;;;;;;-0.87;88.24;102860.56;5005909;28;20018;-63
2021/12/21 10:17:35;;;;;;;44.47;17.40;;;;;;;-0.84;88.56;102859.81;5007571;28;20042;-63
2021/12/21 10:20:07;;;;;;;35.25;14.23;;;;;;;-0.86;88.91;102859.75;5007586;28;20037;-62
2021/12/21 10:22:33;;;;;;;45.65;17.85;;;;;;;-0.77;88.56;102862.75;4973298;28;20546;-64
2021/12/21 10:24:58;;;;;;;43.83;19.33;;;;;;;-0.70;87.90;102857.84;4990019;28;20540;-63
2021/12/21 10:27:24;;;;;;;36.22;16.15;;;;;;;-0.70;88.07;102853.56;5008264;28;20104;-63
2021/12/21 10:29:59;;;;;;;36.05;16.35;;;;;;;-0.67;88.30;102843.34;5008149;28;20072;-61
2021/12/21 10:32:29;;;;;;;48.03;17.50;;;;;;;-0.62;88.61;102838.38;5008103;28;20022;-61
2021/12/21 10:35:07;;;;;;;34.70;16.30;;;;;;;-0.59;88.51;102832.44;5002622;28;20057;-62
2021/12/21 10:37:36;;;;;;;35.58;14.15;;;;;;;-0.59;88.54;102828.16;5004152;28;20492;-63
2021/12/21 10:40:12;;;;;;;39.40;17.27;;;;;;;-0.53;88.27;102810.31;5007279;28;20038;-63
2021/12/21 10:42:55;;;;;;;39.88;16.30;;;;;;;-0.47;87.47;102803.59;5008130;28;20022;-65
2021/12/21 10:45:32;;;;;;;35.55;15.25;;;;;;;-0.43;87.47;102810.69;5008871;28;20060;-62
2021/12/21 10:47:59;;;;;;;42.28;16.20;;;;;;;-0.40;87.41;102803.94;5008013;28;20496;-62
2021/12/21 10:50:26;;;;;;;35.40;16.15;;;;;;;-0.37;86.34;102816.13;4992728;28;20031;-61
2021/12/21 10:52:54;;;;;;;37.40;16.33;;;;;;;-0.31;86.41;102815.50;4996318;28;20026;-64
2021/12/21 10:55:27;;;;;;;45.58;15.52;;;;;;;-0.31;86.82;102806.06;4990024;28;20528;-63
2021/12/21 10:58:04;;;;;;;34.60;15.82;;;;;;;-0.24;85.73;102790.78;5007909;28;20034;-63
2021/12/21 11:00:30;;;;;;;28.30;13.85;;;;;;;-0.17;86.51;102796.28;4990141;28;20489;-61
2021/12/21 11:02:55;;;;;;;32.08;15.05;;;;;;;-0.08;86.15;102800.06;4996876;28;20030;-61
2021/12/21 11:05:21;;;;;;;38.15;14.35;;;;;;;-0.08;86.35;102800.06;5017492;28;20124;-65
2021/12/21 11:10:29;;;;;;;33.67;13.57;;;;;;;-0.02;87.29;102808.13;5005264;28;20038;-60
2021/12/21 11:13:01;;;;;;;36.65;14.63;;;;;;;0.01;85.65;102802.16;4979760;28;20025;-63
2021/12/21 11:15:32;;;;;;;30.85;13.43;;;;;;;0.06;85.94;102798.94;5002431;28;20579;-63
2021/12/21 11:17:59;;;;;;;20.88;12.60;;;;;;;0.10;86.98;102797.38;4995986;28;20033;-60
2021/12/21 11:20:25;;;;;;;23.20;12.35;;;;;;;0.17;87.27;102796.81;4991101;28;20052;-61
2021/12/21 11:22:52;;;;;;;21.58;12.15;;;;;;;0.21;86.83;102796.09;5001083;28;20095;-64
2021/12/21 11:25:17;;;;;;;26.40;12.00;;;;;;;0.27;86.09;102792.88;5007312;28;20116;-63
2021/12/21 11:27:43;;;;;;;24.88;12.75;;;;;;;0.31;83.54;102796.47;4990459;28;20033;-63
2021/12/21 11:30:16;;;;;;;30.10;11.65;;;;;;;0.37;85.25;102791.53;5007475;28;20460;-61
2021/12/21 11:32:45;;;;;;;24.58;12.50;;;;;;;0.42;83.91;102792.59;5006985;28;20476;-61
2021/12/21 11:37:41;;;;;;;21.88;11.95;;;;;;;0.53;83.30;102793.03;5005969;28;20100;-61
2021/12/21 11:40:09;;;;;;;20.50;10.20;;;;;;;0.58;83.80;102781.16;5007650;28;20025;-62
2021/12/21 11:43:01;;;;;;;22.50;10.32;;;;;;;0.66;82.97;102771.03;5006649;28;20234;-63
2021/12/21 11:45:28;;;;;;;22.88;10.45;;;;;;;0.74;82.26;102771.34;5005768;28;20037;-61
2021/12/21 11:48:02;;;;;;;20.60;8.82;;;;;;;0.78;83.32;102761.97;5004601;28;20111;-61
2021/12/21 11:50:29;;;;;;;18.60;8.27;;;;;;;0.84;82.55;102752.69;4989359;28;20061;-60
2021/12/21 11:53:00;;;;;;;16.85;9.02;;;;;;;0.88;83.24;102753.72;4987142;28;20463;-62
2021/12/21 11:55:28;;;;;;;17.88;8.13;;;;;;;1.00;81.05;102756.75;5005395;28;20128;-60
2021/12/21 11:58:12;;;;;;;18.67;9.13;;;;;;;1.17;78.81;102759.06;5006472;28;20045;-58
2021/12/21 12:00:38;;;;;;;20.23;8.57;;;;;;;1.68;76.77;102764.31;5007199;28;20027;-59
2021/12/21 12:03:15;;;;;;;18.30;7.45;;;;;;;2.64;74.05;102746.56;5008101;28;20499;-58
2021/12/21 12:05:49;;;;;;;15.70;7.70;;;;;;;3.58;71.56;102750.88;5007072;28;20408;-59
2021/12/21 12:08:14;;;;;;;16.50;7.55;;;;;;;4.24;68.34;102751.63;5006205;28;20017;-60
2021/12/21 12:10:55;;;;;;;13.25;5.93;;;;;;;5.13;65.51;102752.63;5007349;28;20487;-60
2021/12/21 12:13:30;;;;;;;13.80;6.10;;;;;;;5.66;63.31;102740.56;5005639;28;20037;-61
2021/12/21 12:16:02;;;;;;;10.77;6.10;;;;;;;6.19;60.77;102738.78;5005504;28;20468;-59
2021/12/21 12:18:34;;;;;;;16.10;6.65;;;;;;;5.69;57.19;102730.13;5007068;28;20188;-60